ENBR/BGO METAR and TAF weather

Enter ICAO airport designator
Station Type Date Time Source
ENBR METAR 2020/11/25 21:50 UTC NOAA

ENBR 252150Z 00000KT 9999 VCSH SCT015CB BKN030 05/05 Q1010 RESHRA RMK WIND 1200FT 29004KT


Station Type Date Time Source
ENBR Decoded METAR 2020/11/25 21:50 UTC NOAA

Bergen / Flesland, Norway (ENBR) 60-17N 005-14E 50M
Nov 25, 2020 - 04:50 PM EST / 2020.11.25 2150 UTC
Wind: Calm:0
Visibility: greater than 7 mile(s):0
Sky conditions: mostly cloudy
Weather: showers in the vicinity; Cumulonimbus clouds observed
Temperature: 41 F (5 C)
Dew Point: 41 F (5 C)
Relative Humidity: 100%
Pressure (altimeter): 29.83 in. Hg (1010 hPa)
ob: ENBR 252150Z 00000KT 9999 VCSH SCT015CB BKN030 05/05 Q1010 RESHRA RMK WIND 1200FT 29004KT
cycle: 22

Station Type Date Time Source
ENBR TAF 2020/11/25 18:57 UTC NOAA

TAF ENBR 251700Z 2518/2618 VRB03KT 9999 FEW012 SCT025
TEMPO 2518/2603 SHRA BKN015CB
BECMG 2521/2523 33010KT
BECMG 2603/2605 VRB03KT PROB30 2617/2618 1500 BCFG BKN002

Example: see airport list